sensor_id;sensor_type;location;lat;lon;timestamp;temperature;humidity
75705;DHT22;64391;44.686;37.628;2022-10-31T00:00:12;15.11;93.91
75705;DHT22;64391;44.686;37.628;2022-10-31T00:01:20;15.08;94.07
75705;DHT22;64391;44.686;37.628;2022-10-31T00:02:23;15.07;94.20
75705;DHT22;64391;44.686;37.628;2022-10-31T00:03:24;15.09;93.80
75705;DHT22;64391;44.686;37.628;2022-10-31T00:04:27;15.06;94.12
75705;DHT22;64391;44.686;37.628;2022-10-31T00:05:29;15.08;94.30
75705;DHT22;64391;44.686;37.628;2022-10-31T00:06:31;15.09;93.87
75705;DHT22;64391;44.686;37.628;2022-10-31T00:07:33;15.15;93.64
75705;DHT22;64391;44.686;37.628;2022-10-31T00:08:34;15.18;94.05
75705;DHT22;64391;44.686;37.628;2022-10-31T00:09:36;15.19;93.95
75705;DHT22;64391;44.686;37.628;2022-10-31T00:10:39;15.21;94.62
75705;DHT22;64391;44.686;37.628;2022-10-31T00:11:41;15.16;94.69
75705;DHT22;64391;44.686;37.628;2022-10-31T00:12:43;15.17;94.69
75705;DHT22;64391;44.686;37.628;2022-10-31T00:13:44;15.16;94.52
75705;DHT22;64391;44.686;37.628;2022-10-31T00:14:46;15.18;93.66
75705;DHT22;64391;44.686;37.628;2022-10-31T00:15:48;15.18;93.37
75705;DHT22;64391;44.686;37.628;2022-10-31T00:16:53;15.24;93.33
75705;DHT22;64391;44.686;37.628;2022-10-31T00:17:54;15.23;93.10
75705;DHT22;64391;44.686;37.628;2022-10-31T00:18:58;15.25;93.10
75705;DHT22;64391;44.686;37.628;2022-10-31T00:20:12;15.26;94.04
75705;DHT22;64391;44.686;37.628;2022-10-31T00:21:14;15.28;94.46
75705;DHT22;64391;44.686;37.628;2022-10-31T00:22:16;15.28;94.67
75705;DHT22;64391;44.686;37.628;2022-10-31T00:23:18;15.31;94.07
75705;DHT22;64391;44.686;37.628;2022-10-31T00:24:19;15.33;94.20
75705;DHT22;64391;44.686;37.628;2022-10-31T00:25:21;15.32;93.93
75705;DHT22;64391;44.686;37.628;2022-10-31T00:26:23;15.31;93.66
75705;DHT22;64391;44.686;37.628;2022-10-31T00:27:25;15.30;94.49
75705;DHT22;64391;44.686;37.628;2022-10-31T00:28:29;15.30;95.07
75705;DHT22;64391;44.686;37.628;2022-10-31T00:29:34;15.30;94.44
75705;DHT22;64391;44.686;37.628;2022-10-31T00:30:36;15.33;93.81
75705;DHT22;64391;44.686;37.628;2022-10-31T00:31:37;15.32;93.45
75705;DHT22;64391;44.686;37.628;2022-10-31T00:32:40;15.34;94.12
75705;DHT22;64391;44.686;37.628;2022-10-31T00:33:42;15.32;94.51
75705;DHT22;64391;44.686;37.628;2022-10-31T00:34:44;15.32;94.73
75705;DHT22;64391;44.686;37.628;2022-10-31T00:35:51;15.37;93.49
75705;DHT22;64391;44.686;37.628;2022-10-31T00:36:53;15.37;93.66
75705;DHT22;64391;44.686;37.628;2022-10-31T00:37:55;15.41;92.59
75705;DHT22;64391;44.686;37.628;2022-10-31T00:38:57;15.41;93.63
75705;DHT22;64391;44.686;37.628;2022-10-31T00:40:00;15.44;92.53
75705;DHT22;64391;44.686;37.628;2022-10-31T00:41:01;15.47;93.41
75705;DHT22;64391;44.686;37.628;2022-10-31T00:42:03;15.53;92.38
75705;DHT22;64391;44.686;37.628;2022-10-31T00:43:05;15.52;94.36
75705;DHT22;64391;44.686;37.628;2022-10-31T00:44:07;15.48;93.53
75705;DHT22;64391;44.686;37.628;2022-10-31T00:45:09;15.53;93.33
75705;DHT22;64391;44.686;37.628;2022-10-31T00:46:12;15.53;93.86
75705;DHT22;64391;44.686;37.628;2022-10-31T00:47:16;15.53;93.02
75705;DHT22;64391;44.686;37.628;2022-10-31T00:48:17;15.55;93.28
75705;DHT22;64391;44.686;37.628;2022-10-31T00:49:37;15.56;93.40
75705;DHT22;64391;44.686;37.628;2022-10-31T00:50:58;15.53;94.11
75705;DHT22;64391;44.686;37.628;2022-10-31T00:52:00;15.47;94.50
75705;DHT22;64391;44.686;37.628;2022-10-31T00:53:02;15.49;93.91
75705;DHT22;64391;44.686;37.628;2022-10-31T00:54:03;15.48;94.01
75705;DHT22;64391;44.686;37.628;2022-10-31T00:55:05;15.52;94.17
75705;DHT22;64391;44.686;37.628;2022-10-31T00:56:07;15.52;92.32
75705;DHT22;64391;44.686;37.628;2022-10-31T00:57:28;15.53;92.48
75705;DHT22;64391;44.686;37.628;2022-10-31T00:58:30;15.54;92.26
75705;DHT22;64391;44.686;37.628;2022-10-31T00:59:31;15.57;91.90
75705;DHT22;64391;44.686;37.628;2022-10-31T01:00:33;15.59;92.63
75705;DHT22;64391;44.686;37.628;2022-10-31T01:02:56;15.56;93.46
75705;DHT22;64391;44.686;37.628;2022-10-31T01:03:58;15.54;92.09
75705;DHT22;64391;44.686;37.628;2022-10-31T01:05:01;15.55;92.25
75705;DHT22;64391;44.686;37.628;2022-10-31T01:06:08;15.55;93.11
75705;DHT22;64391;44.686;37.628;2022-10-31T01:07:10;15.54;93.38
75705;DHT22;64391;44.686;37.628;2022-10-31T01:08:13;15.56;94.02
75705;DHT22;64391;44.686;37.628;2022-10-31T01:09:15;15.54;94.39
75705;DHT22;64391;44.686;37.628;2022-10-31T01:10:17;15.52;94.36
75705;DHT22;64391;44.686;37.628;2022-10-31T01:11:22;15.49;94.80
75705;DHT22;64391;44.686;37.628;2022-10-31T01:12:24;15.49;94.93
75705;DHT22;64391;44.686;37.628;2022-10-31T01:13:25;15.48;94.92
75705;DHT22;64391;44.686;37.628;2022-10-31T01:14:27;15.49;95.43
75705;DHT22;64391;44.686;37.628;2022-10-31T01:15:32;15.51;94.91
75705;DHT22;64391;44.686;37.628;2022-10-31T01:16:34;15.52;95.01
75705;DHT22;64391;44.686;37.628;2022-10-31T01:17:35;15.52;94.47
75705;DHT22;64391;44.686;37.628;2022-10-31T01:18:37;15.54;93.83
75705;DHT22;64391;44.686;37.628;2022-10-31T01:19:39;15.57;94.17
75705;DHT22;64391;44.686;37.628;2022-10-31T01:20:41;15.57;94.33
75705;DHT22;64391;44.686;37.628;2022-10-31T01:21:43;15.60;94.18
75705;DHT22;64391;44.686;37.628;2022-10-31T01:22:44;15.62;94.20
75705;DHT22;64391;44.686;37.628;2022-10-31T01:23:46;15.61;93.59
75705;DHT22;64391;44.686;37.628;2022-10-31T01:25:07;15.65;93.35
75705;DHT22;64391;44.686;37.628;2022-10-31T01:26:12;15.63;93.56
75705;DHT22;64391;44.686;37.628;2022-10-31T01:27:32;15.62;94.08
75705;DHT22;64391;44.686;37.628;2022-10-31T01:29:11;15.60;93.71
75705;DHT22;64391;44.686;37.628;2022-10-31T01:30:13;15.58;93.27
75705;DHT22;64391;44.686;37.628;2022-10-31T01:31:16;15.58;93.19
75705;DHT22;64391;44.686;37.628;2022-10-31T01:32:18;15.60;93.71
75705;DHT22;64391;44.686;37.628;2022-10-31T01:33:20;15.62;93.73
75705;DHT22;64391;44.686;37.628;2022-10-31T01:35:42;15.62;94.11
75705;DHT22;64391;44.686;37.628;2022-10-31T01:37:15;15.65;93.54
75705;DHT22;64391;44.686;37.628;2022-10-31T01:38:17;15.61;93.43
75705;DHT22;64391;44.686;37.628;2022-10-31T01:39:19;15.63;93.78
75705;DHT22;64391;44.686;37.628;2022-10-31T01:40:21;15.62;94.07
75705;DHT22;64391;44.686;37.628;2022-10-31T01:41:29;15.60;93.67
75705;DHT22;64391;44.686;37.628;2022-10-31T01:42:32;15.65;92.34
75705;DHT22;64391;44.686;37.628;2022-10-31T01:43:55;15.70;93.20
75705;DHT22;64391;44.686;37.628;2022-10-31T01:45:17;15.66;93.14
75705;DHT22;64391;44.686;37.628;2022-10-31T01:46:24;15.66;93.93
75705;DHT22;64391;44.686;37.628;2022-10-31T01:47:40;15.65;93.58
75705;DHT22;64391;44.686;37.628;2022-10-31T01:48:43;15.66;93.54
75705;DHT22;64391;44.686;37.628;2022-10-31T01:49:46;15.63;93.17
75705;DHT22;64391;44.686;37.628;2022-10-31T01:50:52;15.62;94.16
75705;DHT22;64391;44.686;37.628;2022-10-31T01:51:58;15.61;94.34
75705;DHT22;64391;44.686;37.628;2022-10-31T01:53:20;15.59;93.75
75705;DHT22;64391;44.686;37.628;2022-10-31T01:56:20;15.58;93.67
75705;DHT22;64391;44.686;37.628;2022-10-31T01:57:22;15.55;95.15
75705;DHT22;64391;44.686;37.628;2022-10-31T01:58:28;15.52;95.62
75705;DHT22;64391;44.686;37.628;2022-10-31T01:59:34;15.44;94.16
75705;DHT22;64391;44.686;37.628;2022-10-31T02:00:39;15.48;93.86
75705;DHT22;64391;44.686;37.628;2022-10-31T02:01:42;15.51;94.72
75705;DHT22;64391;44.686;37.628;2022-10-31T02:03:03;15.49;95.78
75705;DHT22;64391;44.686;37.628;2022-10-31T02:04:06;15.48;95.25
75705;DHT22;64391;44.686;37.628;2022-10-31T02:05:28;15.52;95.39
75705;DHT22;64391;44.686;37.628;2022-10-31T02:08:33;15.49;96.34
75705;DHT22;64391;44.686;37.628;2022-10-31T02:09:37;15.52;95.80
75705;DHT22;64391;44.686;37.628;2022-10-31T02:12:01;15.48;96.03
75705;DHT22;64391;44.686;37.628;2022-10-31T02:13:06;15.51;95.64
75705;DHT22;64391;44.686;37.628;2022-10-31T02:14:11;15.55;92.75
75705;DHT22;64391;44.686;37.628;2022-10-31T02:15:14;15.61;92.97
75705;DHT22;64391;44.686;37.628;2022-10-31T02:16:18;15.66;93.98
75705;DHT22;64391;44.686;37.628;2022-10-31T03:34:07;15.12;94.91
75705;DHT22;64391;44.686;37.628;2022-10-31T03:35:12;15.17;95.40
75705;DHT22;64391;44.686;37.628;2022-10-31T03:36:34;15.14;96.26
75705;DHT22;64391;44.686;37.628;2022-10-31T03:37:40;15.21;94.49
75705;DHT22;64391;44.686;37.628;2022-10-31T03:38:48;15.26;93.82
75705;DHT22;64391;44.686;37.628;2022-10-31T03:39:53;15.30;95.33
75705;DHT22;64391;44.686;37.628;2022-10-31T03:40:59;15.27;95.30
75705;DHT22;64391;44.686;37.628;2022-10-31T03:42:07;15.29;95.17
75705;DHT22;64391;44.686;37.628;2022-10-31T03:43:15;15.29;96.07
75705;DHT22;64391;44.686;37.628;2022-10-31T03:44:19;15.27;96.75
75705;DHT22;64391;44.686;37.628;2022-10-31T03:45:30;15.22;97.61
75705;DHT22;64391;44.686;37.628;2022-10-31T03:46:33;15.19;97.63
75705;DHT22;64391;44.686;37.628;2022-10-31T03:47:37;15.24;97.29
75705;DHT22;64391;44.686;37.628;2022-10-31T03:48:39;15.29;97.32
75705;DHT22;64391;44.686;37.628;2022-10-31T03:49:41;15.32;95.48
75705;DHT22;64391;44.686;37.628;2022-10-31T03:50:59;15.43;92.62
75705;DHT22;64391;44.686;37.628;2022-10-31T03:53:22;15.48;94.88
75705;DHT22;64391;44.686;37.628;2022-10-31T03:54:33;15.41;94.05
75705;DHT22;64391;44.686;37.628;2022-10-31T03:55:46;15.48;93.37
75705;DHT22;64391;44.686;37.628;2022-10-31T03:57:41;15.44;92.68
75705;DHT22;64391;44.686;37.628;2022-10-31T03:58:51;15.46;92.53
75705;DHT22;64391;44.686;37.628;2022-10-31T04:00:14;15.48;90.33
75705;DHT22;64391;44.686;37.628;2022-10-31T04:01:21;15.53;90.51
75705;DHT22;64391;44.686;37.628;2022-10-31T04:02:28;15.51;88.41
75705;DHT22;64391;44.686;37.628;2022-10-31T04:03:33;15.54;90.05
75705;DHT22;64391;44.686;37.628;2022-10-31T04:06:17;15.47;89.66
75705;DHT22;64391;44.686;37.628;2022-10-31T04:07:21;15.47;89.05
75705;DHT22;64391;44.686;37.628;2022-10-31T04:08:48;15.44;91.92
75705;DHT22;64391;44.686;37.628;2022-10-31T04:09:52;15.39;89.12
75705;DHT22;64391;44.686;37.628;2022-10-31T04:11:13;15.44;90.71
75705;DHT22;64391;44.686;37.628;2022-10-31T04:12:17;15.42;91.82
75705;DHT22;64391;44.686;37.628;2022-10-31T04:13:39;15.36;91.89
75705;DHT22;64391;44.686;37.628;2022-10-31T04:14:49;15.34;92.16
75705;DHT22;64391;44.686;37.628;2022-10-31T04:15:54;15.30;91.34
75705;DHT22;64391;44.686;37.628;2022-10-31T04:16:57;15.31;91.81
75705;DHT22;64391;44.686;37.628;2022-10-31T04:18:07;15.32;91.38
75705;DHT22;64391;44.686;37.628;2022-10-31T04:19:28;15.31;92.35
75705;DHT22;64391;44.686;37.628;2022-10-31T04:21:07;15.38;90.60
75705;DHT22;64391;44.686;37.628;2022-10-31T04:22:09;15.33;91.89
75705;DHT22;64391;44.686;37.628;2022-10-31T04:23:20;15.37;92.24
75705;DHT22;64391;44.686;37.628;2022-10-31T04:24:41;15.29;94.05
75705;DHT22;64391;44.686;37.628;2022-10-31T04:25:46;15.21;91.61
75705;DHT22;64391;44.686;37.628;2022-10-31T04:28:07;15.30;91.40
75705;DHT22;64391;44.686;37.628;2022-10-31T04:29:09;15.30;92.96
75705;DHT22;64391;44.686;37.628;2022-10-31T04:30:13;15.28;92.87
75705;DHT22;64391;44.686;37.628;2022-10-31T04:31:16;15.19;92.95
75705;DHT22;64391;44.686;37.628;2022-10-31T04:32:19;15.26;92.65
75705;DHT22;64391;44.686;37.628;2022-10-31T04:33:21;15.30;90.94
75705;DHT22;64391;44.686;37.628;2022-10-31T04:34:23;15.38;90.60
75705;DHT22;64391;44.686;37.628;2022-10-31T04:35:25;15.39;91.16
75705;DHT22;64391;44.686;37.628;2022-10-31T04:36:28;15.41;91.22
75705;DHT22;64391;44.686;37.628;2022-10-31T04:37:30;15.33;92.33
75705;DHT22;64391;44.686;37.628;2022-10-31T04:38:32;15.38;90.71
75705;DHT22;64391;44.686;37.628;2022-10-31T04:39:34;15.42;90.92
75705;DHT22;64391;44.686;37.628;2022-10-31T04:41:08;15.46;91.73
75705;DHT22;64391;44.686;37.628;2022-10-31T04:42:30;15.44;92.04
75705;DHT22;64391;44.686;37.628;2022-10-31T04:43:33;15.46;92.72
75705;DHT22;64391;44.686;37.628;2022-10-31T04:44:36;15.43;92.39
75705;DHT22;64391;44.686;37.628;2022-10-31T04:45:37;15.43;90.72
75705;DHT22;64391;44.686;37.628;2022-10-31T04:46:39;15.37;92.56
75705;DHT22;64391;44.686;37.628;2022-10-31T04:47:42;15.30;92.86
75705;DHT22;64391;44.686;37.628;2022-10-31T04:48:44;15.24;90.59
75705;DHT22;64391;44.686;37.628;2022-10-31T04:50:04;15.32;92.45
75705;DHT22;64391;44.686;37.628;2022-10-31T04:51:08;15.30;92.92
75705;DHT22;64391;44.686;37.628;2022-10-31T04:52:10;15.33;88.25
75705;DHT22;64391;44.686;37.628;2022-10-31T04:53:11;15.55;88.53
75705;DHT22;64391;44.686;37.628;2022-10-31T04:54:31;15.51;89.68
75705;DHT22;64391;44.686;37.628;2022-10-31T04:56:04;15.57;88.22
75705;DHT22;64391;44.686;37.628;2022-10-31T04:57:26;15.59;90.15
75705;DHT22;64391;44.686;37.628;2022-10-31T04:58:46;15.54;89.38
75705;DHT22;64391;44.686;37.628;2022-10-31T04:59:48;15.56;88.81
75705;DHT22;64391;44.686;37.628;2022-10-31T05:00:54;15.59;90.82
75705;DHT22;64391;44.686;37.628;2022-10-31T05:01:57;15.61;91.54
75705;DHT22;64391;44.686;37.628;2022-10-31T05:03:11;15.60;92.23
75705;DHT22;64391;44.686;37.628;2022-10-31T05:04:13;15.59;88.66
75705;DHT22;64391;44.686;37.628;2022-10-31T05:05:16;15.67;88.33
75705;DHT22;64391;44.686;37.628;2022-10-31T05:06:18;15.69;90.10
75705;DHT22;64391;44.686;37.628;2022-10-31T05:07:40;15.61;89.28
75705;DHT22;64391;44.686;37.628;2022-10-31T05:08:43;15.56;88.67
75705;DHT22;64391;44.686;37.628;2022-10-31T05:09:46;15.62;88.86
75705;DHT22;64391;44.686;37.628;2022-10-31T05:10:48;15.57;90.83
75705;DHT22;64391;44.686;37.628;2022-10-31T05:11:50;15.60;88.50
75705;DHT22;64391;44.686;37.628;2022-10-31T05:13:12;15.61;89.18
75705;DHT22;64391;44.686;37.628;2022-10-31T05:14:34;15.55;90.09
75705;DHT22;64391;44.686;37.628;2022-10-31T05:15:54;15.52;91.16
75705;DHT22;64391;44.686;37.628;2022-10-31T05:16:56;15.49;90.63
75705;DHT22;64391;44.686;37.628;2022-10-31T05:18:21;15.42;89.28
75705;DHT22;64391;44.686;37.628;2022-10-31T05:19:41;15.47;88.44
75705;DHT22;64391;44.686;37.628;2022-10-31T05:21:11;15.42;90.87
75705;DHT22;64391;44.686;37.628;2022-10-31T05:22:19;15.33;88.65
75705;DHT22;64391;44.686;37.628;2022-10-31T05:23:20;15.33;86.90
75705;DHT22;64391;44.686;37.628;2022-10-31T05:24:40;15.43;87.01
75705;DHT22;64391;44.686;37.628;2022-10-31T05:25:44;15.43;90.05
75705;DHT22;64391;44.686;37.628;2022-10-31T05:26:47;15.46;87.95
75705;DHT22;64391;44.686;37.628;2022-10-31T05:27:50;15.44;85.20
75705;DHT22;64391;44.686;37.628;2022-10-31T05:28:52;15.47;87.55
75705;DHT22;64391;44.686;37.628;2022-10-31T05:29:54;15.47;88.93
75705;DHT22;64391;44.686;37.628;2022-10-31T05:31:15;15.45;89.77
75705;DHT22;64391;44.686;37.628;2022-10-31T05:32:17;15.47;88.25
75705;DHT22;64391;44.686;37.628;2022-10-31T05:35:19;15.49;88.71
75705;DHT22;64391;44.686;37.628;2022-10-31T05:36:45;15.40;90.28
75705;DHT22;64391;44.686;37.628;2022-10-31T05:37:50;15.36;90.72
75705;DHT22;64391;44.686;37.628;2022-10-31T05:38:51;15.38;87.44
75705;DHT22;64391;44.686;37.628;2022-10-31T05:40:04;15.49;86.87
75705;DHT22;64391;44.686;37.628;2022-10-31T05:41:06;15.52;88.40
75705;DHT22;64391;44.686;37.628;2022-10-31T05:42:09;15.54;85.40
75705;DHT22;64391;44.686;37.628;2022-10-31T05:43:10;15.58;86.65
75705;DHT22;64391;44.686;37.628;2022-10-31T05:44:31;15.53;89.70
75705;DHT22;64391;44.686;37.628;2022-10-31T05:45:57;15.52;89.21
75705;DHT22;64391;44.686;37.628;2022-10-31T05:47:21;15.48;88.22
75705;DHT22;64391;44.686;37.628;2022-10-31T05:48:42;15.48;87.66
75705;DHT22;64391;44.686;37.628;2022-10-31T05:50:02;15.53;85.39
75705;DHT22;64391;44.686;37.628;2022-10-31T05:51:07;15.65;85.67
75705;DHT22;64391;44.686;37.628;2022-10-31T05:52:09;15.76;86.47
75705;DHT22;64391;44.686;37.628;2022-10-31T05:53:17;15.78;84.70
75705;DHT22;64391;44.686;37.628;2022-10-31T05:54:20;15.86;86.81
75705;DHT22;64391;44.686;37.628;2022-10-31T05:55:22;15.97;85.16
75705;DHT22;64391;44.686;37.628;2022-10-31T05:57:11;16.13;86.57
75705;DHT22;64391;44.686;37.628;2022-10-31T05:58:13;16.12;85.58
75705;DHT22;64391;44.686;37.628;2022-10-31T05:59:20;16.21;84.61
75705;DHT22;64391;44.686;37.628;2022-10-31T06:00:23;16.26;83.53
75705;DHT22;64391;44.686;37.628;2022-10-31T06:01:26;16.32;82.81
75705;DHT22;64391;44.686;37.628;2022-10-31T06:02:28;16.40;86.27
75705;DHT22;64391;44.686;37.628;2022-10-31T06:03:56;16.45;84.32
75705;DHT22;64391;44.686;37.628;2022-10-31T06:05:00;16.45;83.05
75705;DHT22;64391;44.686;37.628;2022-10-31T06:06:02;16.48;86.05
75705;DHT22;64391;44.686;37.628;2022-10-31T06:07:22;16.51;85.74
75705;DHT22;64391;44.686;37.628;2022-10-31T06:08:25;16.56;85.25
75705;DHT22;64391;44.686;37.628;2022-10-31T06:09:28;16.55;86.48
75705;DHT22;64391;44.686;37.628;2022-10-31T06:10:49;16.52;84.69
75705;DHT22;64391;44.686;37.628;2022-10-31T06:11:56;16.60;85.07
75705;DHT22;64391;44.686;37.628;2022-10-31T06:13:01;16.62;82.75
75705;DHT22;64391;44.686;37.628;2022-10-31T06:14:12;16.63;83.18
75705;DHT22;64391;44.686;37.628;2022-10-31T06:15:30;16.71;82.41
75705;DHT22;64391;44.686;37.628;2022-10-31T06:16:33;16.77;85.29
75705;DHT22;64391;44.686;37.628;2022-10-31T06:18:00;16.80;83.77
75705;DHT22;64391;44.686;37.628;2022-10-31T06:20:24;16.88;85.20
75705;DHT22;64391;44.686;37.628;2022-10-31T06:21:33;16.91;83.09
75705;DHT22;64391;44.686;37.628;2022-10-31T06:22:35;16.99;83.16
75705;DHT22;64391;44.686;37.628;2022-10-31T06:23:36;17.01;86.10
75705;DHT22;64391;44.686;37.628;2022-10-31T06:25:07;17.03;80.82
75705;DHT22;64391;44.686;37.628;2022-10-31T06:26:12;17.06;81.27
75705;DHT22;64391;44.686;37.628;2022-10-31T06:27:15;17.10;83.74
75705;DHT22;64391;44.686;37.628;2022-10-31T06:28:17;17.09;78.81
75705;DHT22;64391;44.686;37.628;2022-10-31T06:29:31;17.10;79.27
75705;DHT22;64391;44.686;37.628;2022-10-31T06:30:50;17.11;80.06
75705;DHT22;64391;44.686;37.628;2022-10-31T06:32:10;17.09;80.06
75705;DHT22;64391;44.686;37.628;2022-10-31T06:33:16;17.06;78.77
75705;DHT22;64391;44.686;37.628;2022-10-31T06:34:28;17.05;81.27
75705;DHT22;64391;44.686;37.628;2022-10-31T06:35:29;16.99;76.12
75705;DHT22;64391;44.686;37.628;2022-10-31T06:36:31;17.00;77.02
75705;DHT22;64391;44.686;37.628;2022-10-31T06:37:33;17.01;76.88
75705;DHT22;64391;44.686;37.628;2022-10-31T06:40:03;16.98;74.33
75705;DHT22;64391;44.686;37.628;2022-10-31T06:41:10;17.02;74.56
75705;DHT22;64391;44.686;37.628;2022-10-31T06:42:22;17.04;81.73
75705;DHT22;64391;44.686;37.628;2022-10-31T06:43:24;17.04;80.12
75705;DHT22;64391;44.686;37.628;2022-10-31T06:44:35;17.04;73.71
75705;DHT22;64391;44.686;37.628;2022-10-31T06:46:06;17.05;73.83
75705;DHT22;64391;44.686;37.628;2022-10-31T06:47:14;17.08;71.14
75705;DHT22;64391;44.686;37.628;2022-10-31T06:48:40;17.10;75.73
75705;DHT22;64391;44.686;37.628;2022-10-31T06:49:53;17.11;74.64
75705;DHT22;64391;44.686;37.628;2022-10-31T06:51:00;17.17;71.76
75705;DHT22;64391;44.686;37.628;2022-10-31T06:52:02;17.22;71.80
75705;DHT22;64391;44.686;37.628;2022-10-31T06:53:04;17.26;75.64
75705;DHT22;64391;44.686;37.628;2022-10-31T06:55:26;17.31;73.98
75705;DHT22;64391;44.686;37.628;2022-10-31T06:56:28;17.34;70.51
75705;DHT22;64391;44.686;37.628;2022-10-31T06:57:32;17.34;69.30
75705;DHT22;64391;44.686;37.628;2022-10-31T06:58:34;17.34;69.49
75705;DHT22;64391;44.686;37.628;2022-10-31T06:59:38;17.35;69.56
75705;DHT22;64391;44.686;37.628;2022-10-31T07:01:02;17.32;65.90
75705;DHT22;64391;44.686;37.628;2022-10-31T07:03:26;17.43;67.51
75705;DHT22;64391;44.686;37.628;2022-10-31T07:04:45;17.48;72.80
75705;DHT22;64391;44.686;37.628;2022-10-31T07:05:49;17.51;65.97
75705;DHT22;64391;44.686;37.628;2022-10-31T07:06:51;17.51;66.96
75705;DHT22;64391;44.686;37.628;2022-10-31T07:08:13;17.49;65.41
75705;DHT22;64391;44.686;37.628;2022-10-31T07:09:15;17.55;67.52
75705;DHT22;64391;44.686;37.628;2022-10-31T07:10:17;17.59;71.01
75705;DHT22;64391;44.686;37.628;2022-10-31T07:11:26;17.59;71.33
75705;DHT22;64391;44.686;37.628;2022-10-31T07:12:30;17.62;73.83
75705;DHT22;64391;44.686;37.628;2022-10-31T07:13:33;17.62;67.88
75705;DHT22;64391;44.686;37.628;2022-10-31T07:14:42;17.60;67.56
75705;DHT22;64391;44.686;37.628;2022-10-31T07:15:45;17.55;62.34
75705;DHT22;64391;44.686;37.628;2022-10-31T07:16:49;17.56;63.05
75705;DHT22;64391;44.686;37.628;2022-10-31T07:17:52;17.60;72.77
75705;DHT22;64391;44.686;37.628;2022-10-31T07:18:54;17.59;67.52
75705;DHT22;64391;44.686;37.628;2022-10-31T07:19:56;17.61;69.46
75705;DHT22;64391;44.686;37.628;2022-10-31T07:20:58;17.61;69.40
75705;DHT22;64391;44.686;37.628;2022-10-31T07:22:18;17.61;67.94
75705;DHT22;64391;44.686;37.628;2022-10-31T07:23:20;17.55;71.06
75705;DHT22;64391;44.686;37.628;2022-10-31T07:24:37;17.53;72.70
75705;DHT22;64391;44.686;37.628;2022-10-31T07:26:10;17.51;70.32
75705;DHT22;64391;44.686;37.628;2022-10-31T07:27:17;17.54;73.28
75705;DHT22;64391;44.686;37.628;2022-10-31T07:28:38;17.52;68.84
75705;DHT22;64391;44.686;37.628;2022-10-31T07:29:40;17.56;68.72
75705;DHT22;64391;44.686;37.628;2022-10-31T07:30:43;17.52;69.47
75705;DHT22;64391;44.686;37.628;2022-10-31T07:32:21;17.51;66.07
75705;DHT22;64391;44.686;37.628;2022-10-31T07:33:28;17.50;67.34
75705;DHT22;64391;44.686;37.628;2022-10-31T07:34:59;17.59;69.41
75705;DHT22;64391;44.686;37.628;2022-10-31T07:36:14;17.64;70.79
75705;DHT22;64391;44.686;37.628;2022-10-31T07:37:19;17.61;65.11
75705;DHT22;64391;44.686;37.628;2022-10-31T07:38:39;17.61;64.30
75705;DHT22;64391;44.686;37.628;2022-10-31T07:39:41;17.64;64.79
75705;DHT22;64391;44.686;37.628;2022-10-31T07:40:43;17.67;67.10
75705;DHT22;64391;44.686;37.628;2022-10-31T07:41:45;17.70;69.82
75705;DHT22;64391;44.686;37.628;2022-10-31T07:42:51;17.72;70.23
75705;DHT22;64391;44.686;37.628;2022-10-31T07:44:12;17.72;70.90
75705;DHT22;64391;44.686;37.628;2022-10-31T07:45:39;17.75;67.68
75705;DHT22;64391;44.686;37.628;2022-10-31T07:47:07;17.79;65.65
75705;DHT22;64391;44.686;37.628;2022-10-31T07:48:24;17.88;66.29
75705;DHT22;64391;44.686;37.628;2022-10-31T07:50:04;17.90;69.39
75705;DHT22;64391;44.686;37.628;2022-10-31T07:51:25;17.95;67.52
75705;DHT22;64391;44.686;37.628;2022-10-31T07:52:46;17.98;69.26
75705;DHT22;64391;44.686;37.628;2022-10-31T07:54:11;18.06;68.72
75705;DHT22;64391;44.686;37.628;2022-10-31T07:55:13;18.10;66.58
75705;DHT22;64391;44.686;37.628;2022-10-31T07:56:15;18.08;67.97
75705;DHT22;64391;44.686;37.628;2022-10-31T07:57:17;18.12;70.15
75705;DHT22;64391;44.686;37.628;2022-10-31T07:58:19;18.17;68.62
75705;DHT22;64391;44.686;37.628;2022-10-31T07:59:21;18.17;67.14
75705;DHT22;64391;44.686;37.628;2022-10-31T08:00:23;18.15;65.69
75705;DHT22;64391;44.686;37.628;2022-10-31T08:01:25;18.13;68.17
75705;DHT22;64391;44.686;37.628;2022-10-31T08:02:47;18.21;68.66
75705;DHT22;64391;44.686;37.628;2022-10-31T08:04:17;18.33;71.16
75705;DHT22;64391;44.686;37.628;2022-10-31T08:05:40;18.39;67.43
75705;DHT22;64391;44.686;37.628;2022-10-31T08:07:00;18.29;64.62
75705;DHT22;64391;44.686;37.628;2022-10-31T08:08:08;18.32;67.78
75705;DHT22;64391;44.686;37.628;2022-10-31T08:09:10;18.30;66.99
75705;DHT22;64391;44.686;37.628;2022-10-31T08:10:13;18.22;65.54
75705;DHT22;64391;44.686;37.628;2022-10-31T08:11:15;18.24;69.96
75705;DHT22;64391;44.686;37.628;2022-10-31T08:12:18;18.26;66.32
75705;DHT22;64391;44.686;37.628;2022-10-31T08:13:20;18.28;66.14
75705;DHT22;64391;44.686;37.628;2022-10-31T08:14:25;18.30;66.98
75705;DHT22;64391;44.686;37.628;2022-10-31T08:15:27;18.36;66.70
75705;DHT22;64391;44.686;37.628;2022-10-31T08:16:29;18.35;67.03
75705;DHT22;64391;44.686;37.628;2022-10-31T08:17:49;18.28;63.76
75705;DHT22;64391;44.686;37.628;2022-10-31T08:18:51;18.33;65.56
75705;DHT22;64391;44.686;37.628;2022-10-31T08:19:54;18.38;67.83
75705;DHT22;64391;44.686;37.628;2022-10-31T08:21:00;18.43;65.80
75705;DHT22;64391;44.686;37.628;2022-10-31T08:22:02;18.47;68.39
75705;DHT22;64391;44.686;37.628;2022-10-31T08:23:05;18.52;66.42
75705;DHT22;64391;44.686;37.628;2022-10-31T08:24:09;18.46;63.37
75705;DHT22;64391;44.686;37.628;2022-10-31T08:25:11;18.47;62.98
75705;DHT22;64391;44.686;37.628;2022-10-31T08:26:14;18.50;63.58
75705;DHT22;64391;44.686;37.628;2022-10-31T08:27:16;18.51;62.75
75705;DHT22;64391;44.686;37.628;2022-10-31T08:28:18;18.57;65.71
75705;DHT22;64391;44.686;37.628;2022-10-31T08:29:38;18.66;67.13
75705;DHT22;64391;44.686;37.628;2022-10-31T08:30:40;18.71;69.05
75705;DHT22;64391;44.686;37.628;2022-10-31T08:32:21;18.79;67.34
75705;DHT22;64391;44.686;37.628;2022-10-31T08:33:41;18.73;62.04
75705;DHT22;64391;44.686;37.628;2022-10-31T08:35:01;18.77;60.35
75705;DHT22;64391;44.686;37.628;2022-10-31T08:36:09;18.78;60.44
75705;DHT22;64391;44.686;37.628;2022-10-31T08:37:29;18.88;59.49
75705;DHT22;64391;44.686;37.628;2022-10-31T08:38:31;18.96;63.26
75705;DHT22;64391;44.686;37.628;2022-10-31T08:39:33;19.02;60.45
75705;DHT22;64391;44.686;37.628;2022-10-31T08:40:35;19.07;59.73